Latest Weather Observations for Marree Airport

IDS60801

Issued at 11:42 pm CDT Wednesday 27 January 2021 (issued every 10 minutes, with the page automatically refreshed every 10 minutes)

About weather observations | Map of weather stations | Latest weather observations for SA | Other Formats
Station Details ID: 017126 Name: MARREE AERO Lat: -29.66 Lon: 138.07 Height: 50.0 m
Data from the previous 72 hours. | See also: Recent months at Marree Airport
Date/Time
CDT
Temp
°C
App
Temp
°C
Dew
Point
°C
Rel
Hum
%
Delta-T
°C
Wind Press
QNH
hPa
Press
MSL
hPa
Rain since
9am
mm
Dir  Spd
km/h
Gust
km/h
Spd
kts
Gust
kts
27/11:30pm 29.5 25.0 10.1 30 11.0 S 24 32 13 17 1008.6 1008.3 0.0
27/11:00pm 29.9 24.9 10.9 31 10.9 S 28 37 15 20 1008.8 1008.5 0.0
27/10:30pm 30.2 24.7 10.7 30 11.2 S 30 39 16 21 1008.4 1008.1 0.0
27/10:00pm 30.5 25.3 12.9 34 10.5 SSW 32 41 17 22 1008.3 1008.0 0.0
27/09:30pm 31.1 26.8 14.3 36 10.2 S 30 39 16 21 1008.2 1007.9 0.0
27/09:00pm 31.6 27.7 14.3 35 10.6 S 28 35 15 19 1008.0 1007.7 0.0
27/08:30pm 32.2 28.3 14.3 33 11.0 S 28 33 15 18 1007.5 1007.2 0.0
27/08:00pm 32.6 28.8 14.7 34 11.0 S 28 35 15 19 1007.2 1006.9 0.0
27/07:30pm 33.4 29.1 14.5 32 11.7 S 30 37 16 20 1006.6 1006.3 0.0
27/07:00pm 33.7 29.3 14.2 30 12.0 S 30 39 16 21 1006.4 1006.1 0.0
27/06:30pm 34.7 30.7 14.0 28 12.7 S 28 37 15 20 1006.0 1005.7 0.0
27/06:00pm 34.9 31.7 15.3 31 12.3 S 26 37 14 20 1005.9 1005.6 0.0
27/05:30pm 34.9 32.8 15.3 31 12.3 S 20 35 11 19 1005.9 1005.6 0.0
27/05:00pm 35.7 32.7 14.9 29 13.0 S 24 33 13 18 1005.8 1005.5 0.0
27/04:30pm 35.5 33.6 15.3 30 12.7 S 19 32 10 17 1006.1 1005.8 0.0
27/04:00pm 36.2 34.0 15.9 30 12.9 SSW 22 37 12 20 1006.3 1006.0 0.0
27/03:30pm 35.6 34.1 15.3 29 12.8 S 17 32 9 17 1006.6 1006.3 0.0
27/03:00pm 35.6 34.1 15.3 29 12.8 S 17 32 9 17 1006.8 1006.5 0.0
27/02:30pm 34.9 34.7 15.7 31 12.1 W 11 22 6 12 1007.2 1006.9 0.0
27/02:00pm 33.4 32.5 14.9 32 11.5 SSW 13 22 7 12 1007.4 1007.1 0.0
27/01:30pm 33.7 32.2 15.2 33 11.5 S 17 28 9 15 1007.7 1007.4 0.0
27/01:00pm 32.6 32.4 14.7 34 11.0 SSW 9 19 5 10 1007.9 1007.6 0.0
27/12:30pm 31.9 31.2 15.4 37 10.3 ESE 13 30 7 16 1008.0 1007.7 0.0
27/12:00pm 31.5 30.1 15.5 38 9.9 SE 17 24 9 13 1008.1 1007.8 0.0
27/11:30am 30.9 29.2 15.7 39 9.5 SE 19 28 10 15 1008.0 1007.7 0.0
27/11:00am 30.3 28.7 16.0 42 8.9 ESE 19 28 10 15 1008.2 1007.9 0.0
27/10:30am 28.3 27.0 15.9 47 7.7 SE 17 26 9 14 1008.3 1008.0 0.0
27/10:00am 27.7 26.7 16.6 50 6.9 ESE 17 22 9 12 1008.5 1008.2 0.0
27/09:30am 26.7 25.8 16.9 55 6.1 SE 17 26 9 14 1008.5 1008.2 0.0
27/09:00am 26.0 24.9 17.4 59 5.4 SSE 19 22 10 12 1008.3 1008.0 0.0
27/08:30am 24.8 24.4 18.0 66 4.3 SSE 17 22 9 12 1008.1 1007.8 0.0
27/08:00am 23.7 23.3 18.8 74 3.1 SSE 19 22 10 12 1007.9 1007.6 0.0
27/07:30am 22.4 23.0 19.4 83 1.9 S 15 19 8 10 1007.8 1007.5 0.0
27/07:00am 21.7 22.1 19.8 89 1.2 S 17 20 9 11 1007.5 1007.2 0.0
27/06:30am 21.5 22.2 19.6 89 1.2 S 15 19 8 10 1007.1 1006.8 0.0
27/06:00am 21.7 22.6 19.3 86 1.5 S 13 17 7 9 1006.7 1006.4 0.0
27/05:30am 22.0 22.3 18.8 82 2.0 S 15 17 8 9 1006.5 1006.2 0.0
27/05:00am 22.3 22.7 18.9 81 2.2 S 15 17 8 9 1006.2 1005.9 0.0
27/04:30am 22.4 22.3 18.8 80 2.3 S 17 19 9 10 1006.0 1005.7 0.0
27/04:00am 22.5 22.7 18.5 78 2.5 S 15 19 8 10 1005.9 1005.6 0.0
27/03:30am 22.6 22.6 18.2 76 2.8 S 15 17 8 9 1005.8 1005.5 0.0
27/03:00am 22.8 23.0 17.7 73 3.2 SSE 13 17 7 9 1005.7 1005.4 0.0
27/02:30am 23.2 22.1 17.4 70 3.6 SSE 19 20 10 11 1005.9 1005.6 0.0
27/02:00am 23.5 22.2 17.3 68 3.8 SSE 20 24 11 13 1006.0 1005.7 0.0
27/01:30am 23.9 22.2 17.2 66 4.2 S 22 26 12 14 1006.1 1005.8 0.0
27/01:00am 24.4 23.2 17.4 65 4.4 S 20 26 11 14 1006.3 1006.0 0.0
27/12:30am 24.9 22.8 17.1 62 4.9 S 24 32 13 17 1006.4 1006.1 0.0
27/12:00am 25.5 22.9 17.7 62 4.9 S 28 33 15 18 1006.4 1006.1 0.0
 
Date/Time
CDT
Temp
°C
App
Temp
°C
Dew
Point
°C
Rel
Hum
%
Delta-T
°C
Wind Press
QNH
hPa
Press
MSL
hPa
Rain since
9am
mm
Dir  Spd
km/h
Gust
km/h
Spd
kts
Gust
kts
26/11:30pm 26.0 23.2 18.2 62 5.0 S 30 37 16 20 1006.2 1005.9 0.0
26/11:00pm 26.6 23.8 18.2 60 5.3 S 30 37 16 20 1005.9 1005.6 0.0
26/10:30pm 27.2 24.0 18.5 59 5.6 S 33 39 18 21 1005.4 1005.1 0.0
26/10:00pm 27.8 25.6 18.8 58 5.8 S 28 39 15 21 1004.9 1004.6 0.0
26/09:30pm 28.6 26.2 19.0 56 6.2 S 30 35 16 19 1004.4 1004.1 0.0
26/09:00pm 29.3 27.2 19.0 53 6.7 SSW 28 35 15 19 1004.3 1004.0 0.0
26/08:30pm 30.2 28.5 18.9 50 7.4 SSW 26 32 14 17 1004.0 1003.7 0.0
26/08:00pm 30.9 28.4 18.9 48 7.8 S 30 37 16 20 1003.4 1003.1 0.0
26/07:30pm 31.4 28.4 19.1 48 8.1 S 33 41 18 22 1002.9 1002.6 0.0
26/07:00pm 32.2 28.9 18.4 44 8.9 S 33 44 18 24 1002.3 1002.0 0.0
26/06:30pm 33.1 29.1 17.7 40 10.0 S 35 43 19 23 1002.2 1001.9 0.0
26/06:00pm 33.3 29.4 17.9 40 10.0 S 35 44 19 24 1002.0 1001.6 0.0
26/05:30pm 33.5 29.7 18.0 39 10.1 S 35 44 19 24 1002.2 1001.9 0.0
26/05:00pm 33.6 29.5 17.3 37 10.5 S 35 44 19 24 1002.4 1002.1 0.0
26/04:30pm 33.7 30.7 17.8 38 10.3 SSW 30 39 16 21 1002.5 1002.2 0.0
26/04:00pm 33.5 30.4 18.4 40 9.8 SSW 32 41 17 22 1002.5 1002.2 0.0
26/03:30pm 33.5 30.2 18.0 39 10.1 SSW 32 43 17 23 1002.6 1002.3 0.0
26/03:00pm 33.5 30.8 18.4 40 9.9 SSW 30 39 16 21 1002.6 1002.3 0.0
26/02:30pm 33.3 31.2 19.7 44 9.0 SSW 30 39 16 21 1002.7 1002.4 0.0
26/02:00pm 32.6 30.4 19.5 46 8.6 SSW 30 41 16 22 1002.7 1002.4 0.0
26/01:40pm 32.4 30.8 20.0 48 8.2 SSW 28 46 15 25 1002.9 1002.6 0.0
26/01:30pm 31.9 30.5 20.5 51 7.6 SSW 28 37 15 20 1003.0 1002.7 0.0
26/01:00pm 31.9 31.6 21.1 52 7.3 SSW 24 35 13 19 1003.1 1002.8 0.0
26/12:30pm 30.0 29.4 20.5 56 6.3 SSW 24 33 13 18 1003.5 1003.2 0.0
26/12:00pm 29.8 29.3 21.5 61 5.6 SSW 26 37 14 20 1003.3 1003.0 0.0
26/11:30am 28.9 28.8 22.2 67 4.5 SSW 26 33 14 18 1003.2 1002.9 0.0
26/11:00am 27.8 28.1 23.0 75 3.3 S 26 33 14 18 1003.2 1002.9 0.0
26/10:30am 27.0 27.7 24.3 85 1.9 SSW 28 33 15 18 1003.1 1002.8 0.0
26/10:00am 26.0 27.4 24.8 93 0.8 S 26 32 14 17 1002.9 1002.6 0.0
26/09:30am 25.4 26.6 24.5 95 0.6 SSW 26 35 14 19 1003.2 1002.9 0.0
26/09:00am 24.1 23.5 23.4 96 0.5 SSW 32 35 17 19 1002.8 1002.5 6.4
26/08:30am 23.4 22.3 22.9 97 0.3 SSW 33 43 18 23 1002.8 1002.5 6.4
26/08:00am 23.3 22.9 23.0 98 0.2 SSW 30 37 16 20 1002.4 1002.1 6.4
26/07:30am 23.5 23.6 23.2 98 0.2 SW 28 35 15 19 1002.1 1001.8 6.4
26/07:00am 24.7 26.6 24.4 98 0.2 SW 22 28 12 15 1001.5 1001.1 6.4
26/06:30am 24.8 28.5 24.6 99 0.1 SSW 13 15 7 8 1001.1 1000.7 6.4
26/06:00am 24.8 28.9 24.6 99 0.1 S 11 13 6 7 1000.8 1000.4 6.4
26/05:30am 24.8 29.0 24.8 100 0.0 SSE 11 13 6 7 1000.5 1000.1 6.4
26/05:00am 24.7 28.5 24.7 100 0.0 S 13 15 7 8 1000.3 999.9 6.4
26/04:30am 24.7 28.8 24.5 99 0.1 SSE 11 13 6 7 999.8 999.4 6.4
26/04:00am 24.6 28.3 24.6 100 0.0 SSE 13 17 7 9 999.6 999.2 6.4
26/03:30am 24.6 27.6 24.6 100 0.0 SSE 17 20 9 11 999.6 999.2 6.4
26/03:00am 24.5 27.8 24.5 100 0.0 SSE 15 20 8 11 999.8 999.4 6.4
26/02:30am 24.5 28.2 24.5 100 0.0 SE 13 17 7 9 999.6 999.2 6.4
26/02:00am 24.7 28.4 24.5 99 0.1 ESE 13 20 7 11 999.7 999.3 6.4
26/01:30am 25.0 27.7 24.8 99 0.1 E 19 24 10 13 999.6 999.2 6.4
26/01:00am 25.1 28.0 25.1 100 0.0 ESE 19 24 10 13 1000.2 999.8 6.4
26/12:30am 24.9 27.6 24.7 99 0.1 SE 19 22 10 12 1000.2 999.8 6.4
26/12:00am 25.1 28.2 24.8 98 0.2 SSW 17 19 9 10 1000.7 1000.3 6.2
 
Date/Time
CDT
Temp
°C
App
Temp
°C
Dew
Point
°C
Rel
Hum
%
Delta-T
°C
Wind Press
QNH
hPa
Press
MSL
hPa
Rain since
9am
mm
Dir  Spd
km/h
Gust
km/h
Spd
kts
Gust
kts
25/11:30pm 25.4 27.4 25.1 98 0.2 SW 24 32 13 17 1001.2 1000.8 5.6
25/11:00pm 26.1 31.2 25.6 97 0.4 ESE 9 11 5 6 1000.0 999.6 5.2
25/10:30pm 25.9 32.2 25.4 97 0.4 - 2 7 1 4 999.8 999.4 5.0
25/10:00pm 26.2 29.7 25.5 96 0.5 WNW 17 26 9 14 1000.0 999.6 3.4
25/09:30pm 26.6 29.8 25.9 96 0.5 N 20 28 11 15 999.2 998.8 2.4
25/09:15pm 26.5 28.0 25.6 95 0.6 NW 28 46 15 25 999.8 999.4 1.6
25/09:05pm 29.4 33.3 25.4 79 2.8 NNW 15 41 8 22 999.7 999.3 0.2
25/09:00pm 29.0 34.0 25.4 81 2.6 N 9 13 5 7 999.5 999.1 0.2
25/08:30pm 29.1 33.3 24.7 77 3.1 N 11 17 6 9 999.0 998.6 0.2
25/08:00pm 28.9 29.7 24.5 77 3.1 N 28 39 15 21 999.1 998.7 0.2
25/07:52pm 29.0 27.4 23.9 74 3.5 NNW 39 50 21 27 999.1 998.7 0.2
25/07:30pm 30.0 27.0 23.2 67 4.7 NW 44 67 24 36 997.9 997.5 0.2
25/07:10pm 30.7 26.3 21.2 57 6.4 NNW 46 74 25 40 997.0 996.6 0.0
25/07:09pm 32.4 27.9 20.3 48 8.1 NNW 44 69 24 37 997.1 996.7 0.0
25/07:00pm 37.7 32.9 16.6 28 13.6 N 37 48 20 26 996.2 995.8 0.0
25/06:30pm 37.8 33.0 16.7 29 13.7 N 37 57 20 31 996.0 995.6 0.0
25/06:27pm 37.9 33.3 16.2 27 13.9 N 35 54 19 29 996.2 995.8 0.0
25/06:00pm 38.9 32.7 16.5 26 14.5 N 44 56 24 30 996.2 995.8 0.0
25/05:38pm 38.7 32.9 16.9 27 14.1 N 43 61 23 33 996.3 995.9 0.0
25/05:30pm 38.7 33.3 16.9 27 14.2 N 41 54 22 29 996.4 996.0 0.0
25/05:16pm 39.0 33.8 16.6 27 14.5 N 39 61 21 33 996.7 996.3 0.0
25/05:00pm 39.4 33.8 17.5 27 14.3 N 43 56 23 30 996.7 996.3 0.0
25/04:33pm 38.2 32.8 17.0 28 13.7 N 41 59 22 32 997.4 997.0 0.0
25/04:30pm 38.5 32.8 17.3 28 13.9 N 43 59 23 32 997.4 997.0 0.0
25/04:00pm 37.6 32.5 17.6 31 13.0 N 41 59 22 32 997.9 997.5 0.0
25/03:37pm 38.8 33.9 18.1 29 13.6 N 41 59 22 32 998.5 998.1 0.0
25/03:30pm 38.8 33.9 18.1 29 13.7 N 41 57 22 31 998.5 998.1 0.0
25/03:21pm 37.9 33.4 18.3 31 12.9 N 39 57 21 31 998.7 998.3 0.0
25/03:00pm 37.5 32.7 18.5 32 12.6 N 41 56 22 30 999.3 998.9 0.0
25/02:34pm 37.5 32.7 18.5 32 12.5 N 41 63 22 34 999.8 999.4 0.0
25/02:30pm 37.5 32.7 18.5 32 12.6 N 41 54 22 29 999.9 999.5 0.0
25/02:07pm 37.0 31.7 18.1 33 12.4 N 43 61 23 33 1000.3 999.9 0.0
25/02:00pm 36.0 30.7 18.1 34 11.7 N 43 59 23 32 1000.5 1000.1 0.0
25/01:30pm 36.1 31.2 18.2 34 11.8 N 41 59 22 32 1001.0 1000.6 0.0
25/01:25pm 35.2 30.2 17.9 36 11.2 NNE 41 59 22 32 1001.1 1000.7 0.0
25/01:00pm 34.6 29.3 18.2 37 10.7 NNE 43 57 23 31 1001.4 1001.0 0.0
25/12:30pm 34.3 28.9 17.9 37 10.7 NNE 43 54 23 29 1001.8 1001.4 0.0
25/12:00pm 33.8 29.5 17.9 38 10.3 NNE 37 52 20 28 1002.2 1001.9 0.0
25/11:30am 32.3 28.8 18.8 44 8.8 NNE 35 46 19 25 1002.5 1002.2 0.0
25/11:00am 32.9 28.5 17.5 39 9.9 N 37 46 20 25 1002.9 1002.6 0.0
25/10:30am 32.0 28.0 18.6 45 8.7 N 37 44 20 24 1003.3 1003.0 0.0
25/10:00am 31.2 28.5 19.2 48 7.8 N 32 39 17 21 1003.4 1003.1 0.0
25/09:30am 31.2 27.6 18.5 46 8.2 N 35 44 19 24 1003.5 1003.2 0.0
25/09:00am 31.4 28.1 18.0 44 8.6 NNE 32 44 17 24 1003.2 1002.9 0.0
25/08:30am 31.6 28.1 17.9 44 8.8 NNE 33 43 18 23 1003.0 1002.7 0.0
25/08:00am 31.6 29.5 17.1 41 9.2 NNE 24 35 13 19 1002.8 1002.5 0.0
25/07:30am 31.0 29.6 16.6 42 9.1 NNE 19 24 10 13 1002.6 1002.3 0.0
25/07:00am 31.0 30.0 16.6 42 9.1 N 17 20 9 11 1002.3 1002.0 0.0
25/06:30am 31.3 30.1 16.1 40 9.5 NNW 17 20 9 11 1002.2 1001.9 0.0
25/06:00am 30.9 28.3 16.9 43 8.9 NW 26 32 14 17 1002.1 1001.8 0.0
25/05:30am 30.7 28.5 17.0 43 8.7 NW 24 32 13 17 1001.8 1001.4 0.0
25/05:00am 31.1 27.4 17.0 42 8.9 NNW 32 43 17 23 1001.5 1001.1 0.0
25/04:30am 31.0 27.0 17.7 45 8.5 NNW 35 41 19 22 1001.6 1001.2 0.0
25/04:00am 30.9 27.8 17.6 45 8.5 NW 30 41 16 22 1001.9 1001.5 0.0
25/03:30am 31.4 27.3 17.3 43 9.0 NW 35 46 19 25 1002.1 1001.8 0.0
25/03:00am 32.1 28.8 16.0 38 10.1 NNW 28 35 15 19 1002.5 1002.2 0.0
25/02:30am 32.2 29.3 16.1 38 10.1 NW 26 35 14 19 1002.5 1002.2 0.0
25/02:00am 32.7 29.0 16.9 38 10.0 NW 32 41 17 22 1002.6 1002.3 0.0
25/01:30am 33.6 29.7 16.5 36 10.9 NW 32 39 17 21 1002.3 1002.0 0.0
25/01:00am 33.9 30.7 16.3 35 11.1 NNW 28 35 15 19 1002.5 1002.2 0.0
25/12:30am 34.0 31.0 16.8 35 11.0 NNW 28 37 15 20 1003.0 1002.7 0.0
25/12:00am 34.4 29.5 16.3 34 11.5 NNW 37 44 20 24 1002.9 1002.6 0.0

Other formats

Comma delimited format used in spreadsheet applications
http://www.bom.gov.au/fwo/IDS60801/IDS60801.95480.axf

JavaScript Object Notation format (JSON) in row-major order
http://www.bom.gov.au/fwo/IDS60801/IDS60801.95480.json

Data quality

Most of these data are generated automatically and are frequently updated. Quality checks on data are not normally performed. It is possible for incorrect values to appear. Refer to information at About Latest Weather Observations and please check the disclaimer before using these data.